createdAt,value
2022-11-15T00:00:57.050Z,8.10
2022-11-15T00:03:26.008Z,8.10
2022-11-15T00:05:52.784Z,8.10
2022-11-15T00:08:19.759Z,8.10
2022-11-15T00:11:00.351Z,8.10
2022-11-15T00:13:27.665Z,8.10
2022-11-15T00:15:58.419Z,8.10
2022-11-15T00:18:25.123Z,8.10
2022-11-15T00:20:51.872Z,8.10
2022-11-15T00:23:18.714Z,8.10
2022-11-15T00:25:45.423Z,8.20
2022-11-15T00:28:12.365Z,8.10
2022-11-15T00:30:39.039Z,8.20
2022-11-15T00:33:06.415Z,8.20
2022-11-15T00:35:34.581Z,8.20
2022-11-15T00:38:02.299Z,8.20
2022-11-15T00:40:29.449Z,8.20
2022-11-15T00:42:56.337Z,8.30
2022-11-15T00:45:23.422Z,8.30
2022-11-15T00:47:50.228Z,8.30
2022-11-15T00:50:17.433Z,8.30
2022-11-15T00:52:44.219Z,8.30
2022-11-15T00:55:16.324Z,8.30
2022-11-15T00:57:43.120Z,8.30
2022-11-15T01:00:10.499Z,8.30
2022-11-15T01:02:37.218Z,8.30
2022-11-15T01:05:04.544Z,8.40
2022-11-15T01:07:31.313Z,8.40
2022-11-15T01:09:58.032Z,8.40
2022-11-15T01:12:24.769Z,8.40
2022-11-15T01:14:51.466Z,8.40
2022-11-15T01:17:18.229Z,8.50
2022-11-15T01:19:44.937Z,8.50
2022-11-15T01:22:11.720Z,8.50
2022-11-15T01:24:38.481Z,8.60
2022-11-15T01:27:05.361Z,8.60
2022-11-15T01:29:32.122Z,8.60
2022-11-15T01:31:58.824Z,8.60
2022-11-15T01:34:25.633Z,8.70
2022-11-15T01:36:52.401Z,8.70
2022-11-15T01:39:19.238Z,8.70
2022-11-15T01:41:46.031Z,8.70
2022-11-15T01:44:34.336Z,8.70
2022-11-15T01:47:23.609Z,8.80
2022-11-15T01:49:56.078Z,8.80
2022-11-15T01:52:26.435Z,8.80
2022-11-15T01:55:08.825Z,8.80
2022-11-15T01:57:36.023Z,8.80
2022-11-15T02:00:05.556Z,8.80
2022-11-15T02:02:34.036Z,8.90
2022-11-15T02:05:00.998Z,8.90
2022-11-15T02:07:29.350Z,8.90
2022-11-15T02:09:58.681Z,8.90
2022-11-15T02:12:25.451Z,8.90
2022-11-15T02:14:55.642Z,9.00
2022-11-15T02:17:31.301Z,9.00
2022-11-15T02:20:16.159Z,9.00
2022-11-15T02:23:21.391Z,9.00
2022-11-15T02:26:22.127Z,9.00
2022-11-15T02:29:00.955Z,9.10
2022-11-15T02:31:37.043Z,9.10
2022-11-15T02:34:17.935Z,9.10
2022-11-15T02:37:26.351Z,9.10
2022-11-15T02:40:08.003Z,9.10
2022-11-15T02:43:03.086Z,9.20
2022-11-15T02:45:41.941Z,9.20
2022-11-15T02:48:10.332Z,9.20
2022-11-15T02:50:37.200Z,9.20
2022-11-15T02:53:04.923Z,9.30
2022-11-15T02:55:37.455Z,9.30
2022-11-15T02:58:16.182Z,9.30
2022-11-15T03:01:18.657Z,9.30
2022-11-15T03:03:58.048Z,9.40
2022-11-15T03:06:36.212Z,9.40
2022-11-15T03:09:27.105Z,9.50
2022-11-15T03:12:02.217Z,9.50
2022-11-15T03:14:42.139Z,9.50
2022-11-15T03:17:36.922Z,9.50
2022-11-15T03:20:06.847Z,9.50
2022-11-15T03:22:43.917Z,9.50
2022-11-15T03:25:16.396Z,9.50
2022-11-15T03:27:50.656Z,9.50
2022-11-15T03:30:19.042Z,9.50
2022-11-15T03:32:50.600Z,9.60
2022-11-15T03:35:22.857Z,9.60
2022-11-15T03:38:16.964Z,9.60
2022-11-15T03:41:06.286Z,9.60
2022-11-15T03:43:55.467Z,9.70
2022-11-15T03:46:28.760Z,9.70
2022-11-15T03:49:05.422Z,9.70
2022-11-15T03:51:32.304Z,9.70
2022-11-15T03:53:59.010Z,9.70
2022-11-15T03:56:25.718Z,9.70
2022-11-15T03:58:52.528Z,9.80
2022-11-15T04:01:19.271Z,9.90
2022-11-15T04:03:46.296Z,9.80
2022-11-15T04:06:13.006Z,9.80
2022-11-15T04:08:39.689Z,9.90
2022-11-15T04:11:06.407Z,9.90
2022-11-15T04:13:33.471Z,9.90
2022-11-15T04:16:00.383Z,10.00
2022-11-15T04:18:27.143Z,10.00
2022-11-15T04:21:12.523Z,10.00
2022-11-15T04:24:05.755Z,10.00
2022-11-15T04:26:32.870Z,10.10
2022-11-15T04:29:18.392Z,10.10
2022-11-15T04:31:45.158Z,10.00
2022-11-15T04:34:11.880Z,10.20
2022-11-15T04:36:57.487Z,10.20
2022-11-15T04:41:51.375Z,10.30
2022-11-15T04:44:18.052Z,10.40
2022-11-15T04:46:44.726Z,10.40
2022-11-15T04:49:11.429Z,10.50
2022-11-15T04:51:38.371Z,10.50
2022-11-15T04:54:05.230Z,10.50
2022-11-15T04:56:32.007Z,10.50
2022-11-15T04:58:58.829Z,10.60
2022-11-15T05:01:25.606Z,10.60
2022-11-15T05:04:11.021Z,10.60
2022-11-15T05:06:37.805Z,10.70
2022-11-15T05:09:04.899Z,10.70
2022-11-15T05:11:31.672Z,10.70
2022-11-15T05:14:01.449Z,10.70
2022-11-15T05:16:28.214Z,10.80
2022-11-15T05:18:55.675Z,10.80
2022-11-15T05:21:23.416Z,10.80
2022-11-15T05:23:50.254Z,10.80
2022-11-15T05:26:18.700Z,10.80
2022-11-15T05:28:45.689Z,10.80
2022-11-15T05:31:14.807Z,10.90
2022-11-15T05:33:42.300Z,10.90
2022-11-15T05:36:12.515Z,10.90
2022-11-15T05:38:39.439Z,10.90
2022-11-15T05:41:06.920Z,11.00
2022-11-15T05:43:37.281Z,11.00
2022-11-15T05:46:05.455Z,11.00
2022-11-15T05:48:33.557Z,11.00
2022-11-15T05:51:00.754Z,11.00
2022-11-15T05:53:27.875Z,11.10
2022-11-15T05:55:57.795Z,11.00
2022-11-15T05:58:24.488Z,11.10
2022-11-15T06:00:51.220Z,11.10
2022-11-15T06:03:17.905Z,11.10
2022-11-15T06:05:44.714Z,11.10
2022-11-15T06:08:11.482Z,11.10
2022-11-15T06:10:38.214Z,11.10
2022-11-15T06:13:06.052Z,11.10
2022-11-15T06:15:35.846Z,11.20
2022-11-15T06:18:02.979Z,11.20
2022-11-15T06:20:30.597Z,11.20
2022-11-15T06:23:02.136Z,11.20
2022-11-15T06:25:30.285Z,11.20
2022-11-15T06:27:59.391Z,11.20
2022-11-15T06:30:27.014Z,11.30
2022-11-15T06:33:03.391Z,11.30
2022-11-15T06:35:30.555Z,11.30
2022-11-15T06:38:02.679Z,11.20
2022-11-15T06:40:29.416Z,11.30
2022-11-15T06:43:00.452Z,11.30
2022-11-15T06:45:27.434Z,11.30
2022-11-15T06:47:54.336Z,11.30
2022-11-15T06:50:21.109Z,11.30
2022-11-15T06:52:47.981Z,11.30
2022-11-15T06:55:14.844Z,11.30
2022-11-15T06:57:49.407Z,11.30
2022-11-15T07:00:17.308Z,11.40
2022-11-15T07:02:44.088Z,11.40
2022-11-15T07:05:11.822Z,11.40
2022-11-15T07:07:40.030Z,11.40
2022-11-15T07:10:07.618Z,11.40
2022-11-15T07:12:34.689Z,11.40
2022-11-15T07:15:04.262Z,11.40
2022-11-15T07:17:32.798Z,11.40
2022-11-15T07:19:59.545Z,11.40
2022-11-15T07:22:26.278Z,11.50
2022-11-15T07:24:52.972Z,11.50
2022-11-15T07:27:19.870Z,11.50
2022-11-15T07:29:46.702Z,11.50
2022-11-15T07:32:13.409Z,11.60
2022-11-15T07:34:40.125Z,11.60
2022-11-15T07:37:06.799Z,11.60
2022-11-15T07:39:33.746Z,11.60
2022-11-15T07:42:19.545Z,11.70
2022-11-15T07:44:46.254Z,11.70
2022-11-15T07:47:12.995Z,11.70
2022-11-15T07:49:39.695Z,11.70
2022-11-15T07:52:06.493Z,11.70
2022-11-15T07:54:33.183Z,11.80
2022-11-15T07:57:04.046Z,11.80
2022-11-15T07:59:32.994Z,11.80
2022-11-15T08:01:59.973Z,11.70
2022-11-15T08:04:26.778Z,11.80
2022-11-15T08:06:53.569Z,11.70
2022-11-15T08:09:20.392Z,11.70
2022-11-15T08:11:47.151Z,11.70
2022-11-15T08:14:13.888Z,11.80
2022-11-15T08:16:40.585Z,11.80
2022-11-15T08:19:07.409Z,11.80
2022-11-15T08:21:34.066Z,11.80
2022-11-15T08:24:00.872Z,11.80
2022-11-15T08:26:30.119Z,11.80
2022-11-15T08:28:56.889Z,11.80
2022-11-15T08:31:23.715Z,11.90
2022-11-15T08:33:50.500Z,11.90
2022-11-15T08:36:18.081Z,11.90
2022-11-15T08:38:44.894Z,12.00
2022-11-15T08:41:17.810Z,12.00
2022-11-15T08:43:44.484Z,12.10
2022-11-15T08:46:14.921Z,12.10
2022-11-15T08:48:41.717Z,12.20
2022-11-15T08:51:08.684Z,12.20
2022-11-15T08:53:35.860Z,12.20
2022-11-15T08:56:02.866Z,12.20
2022-11-15T08:58:29.946Z,12.20
2022-11-15T09:00:57.018Z,12.20
2022-11-15T09:03:23.996Z,12.20
2022-11-15T09:05:55.953Z,12.30
2022-11-15T09:08:51.874Z,12.30
2022-11-15T09:11:11.753Z,12.10
2022-11-15T09:13:38.490Z,12.20
2022-11-15T09:16:05.715Z,12.20
2022-11-15T09:18:32.822Z,12.30
2022-11-15T09:21:00.501Z,12.30
2022-11-15T09:23:27.775Z,12.20
2022-11-15T09:26:03.675Z,12.30
2022-11-15T09:28:31.441Z,12.30
2022-11-15T09:31:02.907Z,12.30
2022-11-15T09:33:30.421Z,12.40
2022-11-15T09:36:08.855Z,12.30
2022-11-15T09:38:36.009Z,12.40
2022-11-15T09:41:26.904Z,12.40
2022-11-15T09:44:09.010Z,12.50
2022-11-15T09:47:01.377Z,12.50
2022-11-15T09:49:30.746Z,12.60
2022-11-15T09:51:58.709Z,12.70
2022-11-15T09:57:33.636Z,12.80
2022-11-15T10:00:45.779Z,12.90
2022-11-15T10:03:24.581Z,12.90
2022-11-15T10:05:55.474Z,12.90
2022-11-15T10:08:51.216Z,12.90
2022-11-15T10:11:41.984Z,12.80
2022-11-15T10:14:16.354Z,12.80
2022-11-15T10:16:46.102Z,12.70
2022-11-15T10:19:27.129Z,12.60
2022-11-15T10:22:15.800Z,12.60
2022-11-15T10:24:44.667Z,12.60
2022-11-15T10:27:14.614Z,12.60
2022-11-15T10:29:51.686Z,12.60
2022-11-15T10:32:20.912Z,12.70
2022-11-15T10:34:49.460Z,12.80
2022-11-15T10:37:29.334Z,12.80
2022-11-15T10:40:07.732Z,12.80
2022-11-15T10:42:34.502Z,12.80
2022-11-15T10:45:01.365Z,12.90
2022-11-15T10:47:37.801Z,12.90
2022-11-15T10:50:27.967Z,12.90
2022-11-15T10:52:55.252Z,12.90
2022-11-15T10:55:27.733Z,12.90
2022-11-15T10:58:01.295Z,12.90
2022-11-15T11:00:40.292Z,12.90
2022-11-15T11:03:28.430Z,13.00
2022-11-15T11:06:17.767Z,13.10
2022-11-15T11:09:02.406Z,13.00
2022-11-15T11:11:58.594Z,13.00
2022-11-15T11:14:34.547Z,13.10
2022-11-15T11:17:13.079Z,13.10
2022-11-15T11:20:13.809Z,13.20
2022-11-15T11:22:52.021Z,13.10
2022-11-15T11:25:43.950Z,13.20
2022-11-15T11:28:26.883Z,13.10
2022-11-15T11:30:56.583Z,13.20
2022-11-15T11:33:29.472Z,13.10
2022-11-15T11:36:12.826Z,13.10
2022-11-15T11:38:59.074Z,13.00
2022-11-15T11:41:39.935Z,13.00
2022-11-15T11:44:27.085Z,13.00
2022-11-15T11:47:15.896Z,13.00
2022-11-15T11:49:54.864Z,13.00
2022-11-15T11:52:53.807Z,13.00
2022-11-15T11:55:30.795Z,13.00
2022-11-15T11:58:22.033Z,13.00
2022-11-15T12:01:12.917Z,13.00
2022-11-15T12:04:12.961Z,12.90
2022-11-15T12:06:44.004Z,12.90
2022-11-15T12:09:50.665Z,12.90
2022-11-15T12:12:20.166Z,12.80
2022-11-15T12:14:56.209Z,12.90
2022-11-15T12:17:32.885Z,12.90
2022-11-15T12:20:23.825Z,12.90
2022-11-15T12:22:59.271Z,12.90
2022-11-15T12:25:50.674Z,12.80
2022-11-15T12:29:06.811Z,12.80
2022-11-15T12:31:50.119Z,12.90
2022-11-15T12:34:23.186Z,12.80
2022-11-15T12:36:51.527Z,12.80
2022-11-15T12:39:19.850Z,12.80
2022-11-15T12:41:55.923Z,12.80
2022-11-15T12:44:31.906Z,12.90
2022-11-15T12:46:58.756Z,12.90
2022-11-15T12:49:28.485Z,12.90
2022-11-15T12:51:58.345Z,12.90
2022-11-15T12:54:25.165Z,12.90
2022-11-15T12:57:04.325Z,13.00
2022-11-15T12:59:50.055Z,12.90
2022-11-15T13:02:44.601Z,12.90
2022-11-15T13:05:35.334Z,13.00
2022-11-15T13:08:04.912Z,13.00
2022-11-15T13:10:38.536Z,12.90
2022-11-15T13:13:09.370Z,12.90
2022-11-15T13:15:42.250Z,12.90
2022-11-15T13:18:25.184Z,12.90
2022-11-15T13:20:52.230Z,12.90
2022-11-15T13:23:19.106Z,12.90
2022-11-15T13:26:04.841Z,13.00
2022-11-15T13:28:37.674Z,12.90
2022-11-15T13:31:42.926Z,12.90
2022-11-15T13:34:51.643Z,12.90
2022-11-15T13:37:22.540Z,13.00
2022-11-15T13:39:50.541Z,13.00
2022-11-15T13:42:19.448Z,12.90
2022-11-15T13:44:58.364Z,13.00
2022-11-15T13:47:28.772Z,13.00
2022-11-15T13:49:59.232Z,13.00
2022-11-15T13:52:36.725Z,12.90
2022-11-15T13:55:18.501Z,12.90
2022-11-15T13:57:54.473Z,12.90
2022-11-15T14:00:28.827Z,13.00
2022-11-15T14:02:57.455Z,13.00
2022-11-15T14:05:25.755Z,13.00
2022-11-15T14:08:01.956Z,13.10
2022-11-15T14:10:38.870Z,13.00
2022-11-15T14:13:27.839Z,12.90
2022-11-15T14:15:54.958Z,12.90
2022-11-15T14:18:58.998Z,12.90
2022-11-15T14:21:30.641Z,12.80
2022-11-15T14:24:17.536Z,12.80
2022-11-15T14:26:44.743Z,12.80
2022-11-15T14:29:28.255Z,12.70
2022-11-15T14:32:06.761Z,12.70
2022-11-15T14:34:33.983Z,12.70
2022-11-15T14:37:00.779Z,12.60
2022-11-15T14:39:27.551Z,12.60
2022-11-15T14:41:54.481Z,12.60
2022-11-15T14:44:22.774Z,12.60
2022-11-15T14:46:49.672Z,12.50
2022-11-15T14:49:17.375Z,12.50
2022-11-15T14:51:46.434Z,12.50
2022-11-15T14:54:19.621Z,12.40
2022-11-15T14:56:46.610Z,12.40
2022-11-15T14:59:13.447Z,12.40
2022-11-15T15:01:40.558Z,12.40
2022-11-15T15:04:07.399Z,12.40
2022-11-15T15:06:34.227Z,12.40
2022-11-15T15:09:01.510Z,12.40
2022-11-15T15:11:31.104Z,12.40
2022-11-15T15:14:02.327Z,12.40
2022-11-15T15:16:29.151Z,12.30
2022-11-15T15:18:58.940Z,12.40
2022-11-15T15:21:33.618Z,12.40
2022-11-15T15:24:04.020Z,12.40
2022-11-15T15:26:33.271Z,12.40
2022-11-15T15:29:00.165Z,12.40
2022-11-15T15:31:27.349Z,12.40
2022-11-15T15:33:54.249Z,12.40
2022-11-15T15:36:21.075Z,12.40
2022-11-15T15:38:47.989Z,12.40
2022-11-15T15:41:16.560Z,12.50
2022-11-15T15:43:43.716Z,12.40
2022-11-15T15:46:16.569Z,12.40
2022-11-15T15:48:46.226Z,12.40
2022-11-15T15:51:19.623Z,12.40
2022-11-15T15:53:47.476Z,12.40
2022-11-15T15:56:14.444Z,12.30
2022-11-15T15:58:41.130Z,12.40
2022-11-15T16:01:07.995Z,12.40
2022-11-15T16:03:34.779Z,12.30
2022-11-15T16:06:02.131Z,12.30
2022-11-15T16:08:42.575Z,12.30
2022-11-15T16:11:17.518Z,12.30
2022-11-15T16:13:44.394Z,12.30
2022-11-15T16:16:14.431Z,12.30
2022-11-15T16:18:41.249Z,12.30
2022-11-15T16:21:09.587Z,12.30
2022-11-15T16:23:36.456Z,12.30
2022-11-15T16:26:05.876Z,12.30
2022-11-15T16:28:34.409Z,12.30
2022-11-15T16:31:12.779Z,12.30
2022-11-15T16:33:40.576Z,12.30
2022-11-15T16:36:28.425Z,12.50
2022-11-15T16:38:57.133Z,12.50
2022-11-15T16:41:24.001Z,12.40
2022-11-15T16:43:50.991Z,12.40
2022-11-15T16:46:23.097Z,12.40
2022-11-15T16:48:50.652Z,12.40
2022-11-15T16:51:17.955Z,12.40
2022-11-15T16:53:45.136Z,12.40
2022-11-15T16:56:23.865Z,12.40
2022-11-15T16:58:50.746Z,12.40
2022-11-15T17:01:33.870Z,12.40
2022-11-15T17:04:12.683Z,12.40
2022-11-15T17:06:44.354Z,12.40
2022-11-15T17:09:16.795Z,12.50
2022-11-15T17:11:44.013Z,12.50
2022-11-15T17:14:11.912Z,12.50
2022-11-15T17:16:42.414Z,12.60
2022-11-15T17:19:16.634Z,12.60
2022-11-15T17:21:44.355Z,12.60
2022-11-15T17:24:11.439Z,12.60
2022-11-15T17:26:40.711Z,12.60
2022-11-15T17:29:08.256Z,12.60
2022-11-15T17:31:36.610Z,12.60
2022-11-15T17:34:05.135Z,12.70
2022-11-15T17:36:32.440Z,12.70
2022-11-15T17:39:00.092Z,12.70
2022-11-15T17:41:28.028Z,12.70
2022-11-15T17:44:00.242Z,12.70
2022-11-15T17:46:28.446Z,12.70
2022-11-15T17:48:56.507Z,12.70
2022-11-15T17:51:24.162Z,12.70
2022-11-15T17:53:51.641Z,12.70
2022-11-15T17:56:21.005Z,12.70
2022-11-15T17:58:56.527Z,12.80
2022-11-15T18:01:28.792Z,12.70
2022-11-15T18:03:56.893Z,12.70
2022-11-15T18:06:24.966Z,12.70
2022-11-15T18:08:53.648Z,12.70
2022-11-15T18:11:23.679Z,12.70
2022-11-15T18:13:54.341Z,12.70
2022-11-15T18:16:25.411Z,12.70
2022-11-15T18:18:53.177Z,12.70
2022-11-15T18:21:22.777Z,12.70
2022-11-15T18:23:54.686Z,12.70
2022-11-15T18:26:27.088Z,12.70
2022-11-15T18:28:56.155Z,12.70
2022-11-15T18:31:28.506Z,12.70
2022-11-15T18:33:56.017Z,12.70
2022-11-15T18:36:28.514Z,12.70
2022-11-15T18:39:00.620Z,12.60
2022-11-15T18:41:30.876Z,12.60
2022-11-15T18:44:00.831Z,12.60
2022-11-15T18:46:30.946Z,12.60
2022-11-15T18:48:59.518Z,12.60
2022-11-15T18:51:30.275Z,12.50
2022-11-15T18:54:00.408Z,12.50
2022-11-15T18:56:28.899Z,12.50
2022-11-15T18:58:57.919Z,12.40
2022-11-15T19:01:30.756Z,12.30
2022-11-15T19:03:58.633Z,12.20
2022-11-15T19:06:27.565Z,12.10
2022-11-15T19:08:56.460Z,12.10
2022-11-15T19:11:28.986Z,12.10
2022-11-15T19:13:56.689Z,12.00
2022-11-15T19:16:24.527Z,12.00
2022-11-15T19:18:55.538Z,12.00
2022-11-15T19:21:25.100Z,12.00
2022-11-15T19:23:55.557Z,12.00
2022-11-15T19:26:23.695Z,12.00
2022-11-15T19:28:59.686Z,11.90
2022-11-15T19:31:31.582Z,11.90
2022-11-15T19:34:06.535Z,12.00
2022-11-15T19:36:43.836Z,11.90
2022-11-15T19:39:13.520Z,11.90
2022-11-15T19:41:42.524Z,11.80
2022-11-15T19:44:11.198Z,11.90
2022-11-15T19:46:38.969Z,11.80
2022-11-15T19:49:08.020Z,11.80
2022-11-15T19:51:34.957Z,11.80
2022-11-15T19:54:06.536Z,11.80
2022-11-15T19:56:34.775Z,11.80
2022-11-15T19:59:02.343Z,11.70
2022-11-15T20:01:31.391Z,11.70
2022-11-15T20:03:59.612Z,11.70
2022-11-15T20:06:32.268Z,11.70
2022-11-15T20:08:59.535Z,11.70
2022-11-15T20:11:27.142Z,11.70
2022-11-15T20:14:02.420Z,11.70
2022-11-15T20:16:29.729Z,11.70
2022-11-15T20:18:56.639Z,11.70
2022-11-15T20:21:23.814Z,11.70
2022-11-15T20:23:51.756Z,11.70
2022-11-15T20:26:19.870Z,11.70
2022-11-15T20:28:48.157Z,11.70
2022-11-15T20:31:16.400Z,11.70
2022-11-15T20:33:43.192Z,11.60
2022-11-15T20:36:12.251Z,11.70
2022-11-15T20:38:39.349Z,11.60
2022-11-15T20:41:06.648Z,11.60
2022-11-15T20:43:33.376Z,11.60
2022-11-15T20:46:00.248Z,11.60
2022-11-15T20:48:27.312Z,11.60
2022-11-15T20:51:07.559Z,11.60
2022-11-15T20:53:34.463Z,11.60
2022-11-15T20:56:11.593Z,11.70
2022-11-15T20:58:38.758Z,11.70
2022-11-15T21:01:07.008Z,11.70
2022-11-15T21:03:34.174Z,11.70
2022-11-15T21:06:01.412Z,11.70
2022-11-15T21:08:28.241Z,11.70
2022-11-15T21:11:13.966Z,11.70
2022-11-15T21:13:40.707Z,11.70
2022-11-15T21:16:08.123Z,11.70
2022-11-15T21:18:35.169Z,11.70
2022-11-15T21:21:04.515Z,11.70
2022-11-15T21:23:31.687Z,11.70
2022-11-15T21:25:58.666Z,11.70
2022-11-15T21:28:25.661Z,11.70
2022-11-15T21:30:54.265Z,11.70
2022-11-15T21:33:21.592Z,11.70
2022-11-15T21:35:48.390Z,11.80
2022-11-15T21:38:15.610Z,11.80
2022-11-15T21:40:42.338Z,11.70
2022-11-15T21:43:09.100Z,11.80
2022-11-15T21:45:35.871Z,11.80
2022-11-15T21:48:02.657Z,11.80
2022-11-15T21:50:29.550Z,11.80
2022-11-15T21:52:56.313Z,11.90
2022-11-15T21:55:23.092Z,11.80
2022-11-15T21:57:49.829Z,11.80
2022-11-15T22:00:35.993Z,11.80
2022-11-15T22:03:02.815Z,11.80
2022-11-15T22:05:29.616Z,11.80
2022-11-15T22:07:56.322Z,11.80
2022-11-15T22:10:23.041Z,11.90
2022-11-15T22:12:49.734Z,11.90
2022-11-15T22:15:16.704Z,12.00
2022-11-15T22:17:58.378Z,11.90
2022-11-15T22:23:12.317Z,11.90
2022-11-15T22:25:39.068Z,11.90
2022-11-15T22:28:05.810Z,11.90
2022-11-15T22:30:32.578Z,11.90
2022-11-15T22:32:59.355Z,11.90
2022-11-15T22:35:26.058Z,11.90
2022-11-15T22:37:52.900Z,11.90
2022-11-15T22:40:19.737Z,11.90
2022-11-15T22:42:46.504Z,11.90
2022-11-15T22:45:13.261Z,12.00
2022-11-15T22:47:39.909Z,12.00
2022-11-15T22:50:07.131Z,12.00
2022-11-15T22:52:33.825Z,12.00
2022-11-15T22:55:00.512Z,12.00
2022-11-15T22:57:27.326Z,12.00
2022-11-15T22:59:54.114Z,12.00
2022-11-15T23:02:20.906Z,12.00
2022-11-15T23:04:47.650Z,12.00
2022-11-15T23:07:14.421Z,12.00
2022-11-15T23:09:41.259Z,12.00
2022-11-15T23:12:28.769Z,12.00
2022-11-15T23:14:55.491Z,12.00
2022-11-15T23:17:22.275Z,12.00
2022-11-15T23:19:49.013Z,12.00
2022-11-15T23:25:19.015Z,12.00
2022-11-15T23:27:45.681Z,12.00
2022-11-15T23:30:31.297Z,12.00
2022-11-15T23:33:16.788Z,12.00
2022-11-15T23:35:53.008Z,12.00
2022-11-15T23:38:19.685Z,12.00
2022-11-15T23:40:54.955Z,12.10
2022-11-15T23:43:22.294Z,12.00
2022-11-15T23:45:49.074Z,12.00
2022-11-15T23:48:15.808Z,12.00
2022-11-15T23:50:42.548Z,12.00
2022-11-15T23:53:09.261Z,12.10
2022-11-15T23:55:35.943Z,12.10
2022-11-15T23:58:02.619Z,12.10
